sensor_id;sensor_type;location;lat;lon;timestamp;pressure;altitude;pressure_sealevel;temperature;humidity
8334;BME280;4204;43.004;23.052;2023-06-24T00:01:37;93828.25;;;21.11;100.00
8334;BME280;4204;43.004;23.052;2023-06-24T00:04:05;93822.06;;;21.07;100.00
8334;BME280;4204;43.004;23.052;2023-06-24T00:06:33;93828.13;;;20.93;100.00
8334;BME280;4204;43.004;23.052;2023-06-24T00:09:02;93835.47;;;20.96;100.00
8334;BME280;4204;43.004;23.052;2023-06-24T00:11:30;93840.47;;;20.90;100.00
8334;BME280;4204;43.004;23.052;2023-06-24T00:13:58;93840.78;;;20.78;100.00
8334;BME280;4204;43.004;23.052;2023-06-24T00:16:25;93833.06;;;20.80;100.00
8334;BME280;4204;43.004;23.052;2023-06-24T00:18:56;93838.50;;;20.84;100.00
8334;BME280;4204;43.004;23.052;2023-06-24T00:21:26;93839.69;;;20.86;100.00
8334;BME280;4204;43.004;23.052;2023-06-24T00:23:56;93840.09;;;20.92;100.00
8334;BME280;4204;43.004;23.052;2023-06-24T00:26:25;93840.41;;;20.80;100.00
8334;BME280;4204;43.004;23.052;2023-06-24T00:28:53;93837.81;;;20.43;100.00
8334;BME280;4204;43.004;23.052;2023-06-24T00:31:22;93838.53;;;20.40;100.00
8334;BME280;4204;43.004;23.052;2023-06-24T00:33:50;93828.56;;;20.44;100.00
8334;BME280;4204;43.004;23.052;2023-06-24T00:36:20;93831.63;;;20.43;100.00
8334;BME280;4204;43.004;23.052;2023-06-24T00:38:49;93825.44;;;20.42;100.00
8334;BME280;4204;43.004;23.052;2023-06-24T00:41:17;93818.91;;;20.43;100.00
8334;BME280;4204;43.004;23.052;2023-06-24T00:43:47;93823.47;;;20.36;100.00
8334;BME280;4204;43.004;23.052;2023-06-24T00:46:15;93817.34;;;20.42;100.00
8334;BME280;4204;43.004;23.052;2023-06-24T00:48:42;93826.19;;;20.36;100.00
8334;BME280;4204;43.004;23.052;2023-06-24T00:51:10;93824.69;;;20.42;100.00
8334;BME280;4204;43.004;23.052;2023-06-24T00:53:38;93830.03;;;20.38;100.00
8334;BME280;4204;43.004;23.052;2023-06-24T00:56:06;93836.94;;;20.32;100.00
8334;BME280;4204;43.004;23.052;2023-06-24T00:58:35;93836.59;;;20.34;100.00
8334;BME280;4204;43.004;23.052;2023-06-24T01:01:07;93839.22;;;20.27;100.00
8334;BME280;4204;43.004;23.052;2023-06-24T01:03:36;93842.94;;;20.15;100.00
8334;BME280;4204;43.004;23.052;2023-06-24T01:06:04;93834.22;;;19.92;100.00
8334;BME280;4204;43.004;23.052;2023-06-24T01:08:32;93828.63;;;19.74;100.00
8334;BME280;4204;43.004;23.052;2023-06-24T01:11:00;93823.63;;;19.76;100.00
8334;BME280;4204;43.004;23.052;2023-06-24T01:13:28;93821.97;;;19.65;100.00
8334;BME280;4204;43.004;23.052;2023-06-24T01:15:59;93833.25;;;19.74;100.00
8334;BME280;4204;43.004;23.052;2023-06-24T01:18:32;93837.13;;;19.76;100.00
8334;BME280;4204;43.004;23.052;2023-06-24T01:21:06;93855.44;;;19.93;100.00
8334;BME280;4204;43.004;23.052;2023-06-24T01:23:55;93863.75;;;20.14;100.00
8334;BME280;4204;43.004;23.052;2023-06-24T01:26:52;93879.44;;;20.35;100.00
8334;BME280;4204;43.004;23.052;2023-06-24T01:29:52;93875.53;;;20.33;100.00
8334;BME280;4204;43.004;23.052;2023-06-24T01:32:26;93870.44;;;20.24;100.00
8334;BME280;4204;43.004;23.052;2023-06-24T01:34:58;93876.19;;;19.86;100.00
8334;BME280;4204;43.004;23.052;2023-06-24T01:37:32;93881.91;;;19.81;100.00
8334;BME280;4204;43.004;23.052;2023-06-24T01:40:07;93874.91;;;19.76;100.00
8334;BME280;4204;43.004;23.052;2023-06-24T01:42:39;93884.88;;;19.72;100.00
8334;BME280;4204;43.004;23.052;2023-06-24T01:45:11;93889.47;;;19.68;100.00
8334;BME280;4204;43.004;23.052;2023-06-24T01:47:43;93894.28;;;19.52;100.00
8334;BME280;4204;43.004;23.052;2023-06-24T01:50:12;93894.69;;;19.54;100.00
8334;BME280;4204;43.004;23.052;2023-06-24T01:52:43;93887.75;;;19.53;100.00
8334;BME280;4204;43.004;23.052;2023-06-24T01:55:17;93892.94;;;19.69;100.00
8334;BME280;4204;43.004;23.052;2023-06-24T01:57:49;93902.19;;;19.68;100.00
8334;BME280;4204;43.004;23.052;2023-06-24T02:00:18;93902.16;;;19.64;100.00
8334;BME280;4204;43.004;23.052;2023-06-24T02:02:50;93893.53;;;19.85;100.00
8334;BME280;4204;43.004;23.052;2023-06-24T02:05:19;93893.31;;;20.00;100.00
8334;BME280;4204;43.004;23.052;2023-06-24T02:07:49;93894.94;;;20.08;100.00
8334;BME280;4204;43.004;23.052;2023-06-24T02:10:18;93888.38;;;20.09;100.00
8334;BME280;4204;43.004;23.052;2023-06-24T02:12:48;93890.13;;;20.25;100.00
8334;BME280;4204;43.004;23.052;2023-06-24T02:15:16;93897.53;;;20.31;100.00
8334;BME280;4204;43.004;23.052;2023-06-24T02:17:46;93894.53;;;20.06;100.00
8334;BME280;4204;43.004;23.052;2023-06-24T02:20:19;93907.69;;;19.75;100.00
8334;BME280;4204;43.004;23.052;2023-06-24T02:22:48;93914.28;;;19.21;100.00
8334;BME280;4204;43.004;23.052;2023-06-24T02:25:16;93926.88;;;19.14;100.00
8334;BME280;4204;43.004;23.052;2023-06-24T02:27:44;93930.28;;;19.11;100.00
8334;BME280;4204;43.004;23.052;2023-06-24T02:30:14;93929.13;;;19.12;100.00
8334;BME280;4204;43.004;23.052;2023-06-24T02:32:42;93918.44;;;19.15;100.00
8334;BME280;4204;43.004;23.052;2023-06-24T02:35:10;93907.84;;;19.29;100.00
8334;BME280;4204;43.004;23.052;2023-06-24T02:37:39;93907.38;;;19.50;100.00
8334;BME280;4204;43.004;23.052;2023-06-24T02:40:08;93914.00;;;19.30;100.00
8334;BME280;4204;43.004;23.052;2023-06-24T02:42:36;93924.81;;;19.30;100.00
8334;BME280;4204;43.004;23.052;2023-06-24T02:45:05;93928.81;;;19.13;100.00
8334;BME280;4204;43.004;23.052;2023-06-24T02:47:33;93921.22;;;18.96;100.00
8334;BME280;4204;43.004;23.052;2023-06-24T02:50:03;93912.47;;;19.03;100.00
8334;BME280;4204;43.004;23.052;2023-06-24T02:52:33;93919.81;;;19.06;100.00
8334;BME280;4204;43.004;23.052;2023-06-24T02:55:07;93926.59;;;19.22;100.00
8334;BME280;4204;43.004;23.052;2023-06-24T02:57:51;93923.63;;;19.31;100.00
8334;BME280;4204;43.004;23.052;2023-06-24T03:00:28;93925.22;;;19.32;100.00
8334;BME280;4204;43.004;23.052;2023-06-24T03:03:25;93934.56;;;19.38;100.00
8334;BME280;4204;43.004;23.052;2023-06-24T03:05:55;93930.69;;;19.35;100.00
8334;BME280;4204;43.004;23.052;2023-06-24T03:08:25;93926.94;;;19.44;100.00
8334;BME280;4204;43.004;23.052;2023-06-24T03:10:55;93933.16;;;19.48;100.00
8334;BME280;4204;43.004;23.052;2023-06-24T03:13:25;93932.31;;;19.44;100.00
8334;BME280;4204;43.004;23.052;2023-06-24T03:16:02;93929.97;;;19.39;100.00
8334;BME280;4204;43.004;23.052;2023-06-24T03:18:33;93915.56;;;19.31;100.00
8334;BME280;4204;43.004;23.052;2023-06-24T03:21:01;93921.72;;;19.31;100.00
8334;BME280;4204;43.004;23.052;2023-06-24T03:23:31;93927.84;;;19.28;100.00
8334;BME280;4204;43.004;23.052;2023-06-24T03:26:01;93924.97;;;19.41;100.00
8334;BME280;4204;43.004;23.052;2023-06-24T03:28:29;93913.06;;;19.45;100.00
8334;BME280;4204;43.004;23.052;2023-06-24T03:31:07;93913.91;;;19.49;100.00
8334;BME280;4204;43.004;23.052;2023-06-24T03:33:35;93907.75;;;19.49;100.00
8334;BME280;4204;43.004;23.052;2023-06-24T03:36:03;93914.78;;;19.57;100.00
8334;BME280;4204;43.004;23.052;2023-06-24T03:38:33;93905.88;;;19.53;100.00
8334;BME280;4204;43.004;23.052;2023-06-24T03:41:03;93900.53;;;19.60;100.00
8334;BME280;4204;43.004;23.052;2023-06-24T03:43:30;93890.09;;;19.55;100.00
8334;BME280;4204;43.004;23.052;2023-06-24T03:45:58;93885.06;;;19.53;100.00
8334;BME280;4204;43.004;23.052;2023-06-24T03:48:27;93883.19;;;19.57;100.00
8334;BME280;4204;43.004;23.052;2023-06-24T03:50:55;93890.34;;;19.76;100.00
8334;BME280;4204;43.004;23.052;2023-06-24T03:53:22;93890.41;;;19.83;100.00
8334;BME280;4204;43.004;23.052;2023-06-24T03:55:51;93894.31;;;19.85;100.00
8334;BME280;4204;43.004;23.052;2023-06-24T03:58:20;93894.72;;;19.87;100.00
8334;BME280;4204;43.004;23.052;2023-06-24T04:00:49;93913.66;;;19.91;100.00
8334;BME280;4204;43.004;23.052;2023-06-24T04:03:16;93916.34;;;19.91;100.00
8334;BME280;4204;43.004;23.052;2023-06-24T04:05:45;93912.91;;;19.94;100.00
8334;BME280;4204;43.004;23.052;2023-06-24T04:08:12;93920.28;;;19.97;100.00
8334;BME280;4204;43.004;23.052;2023-06-24T04:10:40;93909.78;;;19.88;100.00
8334;BME280;4204;43.004;23.052;2023-06-24T04:13:11;93917.16;;;19.95;100.00
8334;BME280;4204;43.004;23.052;2023-06-24T04:15:41;93926.06;;;19.99;100.00
8334;BME280;4204;43.004;23.052;2023-06-24T04:18:08;93921.75;;;19.91;100.00
8334;BME280;4204;43.004;23.052;2023-06-24T04:20:36;93926.00;;;19.92;100.00
8334;BME280;4204;43.004;23.052;2023-06-24T04:23:04;93926.97;;;20.10;100.00
8334;BME280;4204;43.004;23.052;2023-06-24T04:25:35;93926.69;;;20.18;100.00
8334;BME280;4204;43.004;23.052;2023-06-24T04:28:03;93928.44;;;20.34;100.00
8334;BME280;4204;43.004;23.052;2023-06-24T04:30:31;93932.06;;;20.48;100.00
8334;BME280;4204;43.004;23.052;2023-06-24T04:33:04;93924.00;;;20.59;100.00
8334;BME280;4204;43.004;23.052;2023-06-24T04:35:32;93925.19;;;20.58;100.00
8334;BME280;4204;43.004;23.052;2023-06-24T04:38:00;93925.66;;;20.67;100.00
8334;BME280;4204;43.004;23.052;2023-06-24T04:40:28;93923.06;;;20.81;100.00
8334;BME280;4204;43.004;23.052;2023-06-24T04:42:56;93923.91;;;20.92;100.00
8334;BME280;4204;43.004;23.052;2023-06-24T04:45:24;93927.09;;;21.01;100.00
8334;BME280;4204;43.004;23.052;2023-06-24T04:47:52;93926.41;;;21.08;100.00
8334;BME280;4204;43.004;23.052;2023-06-24T04:50:21;93927.25;;;21.19;100.00
8334;BME280;4204;43.004;23.052;2023-06-24T04:52:52;93923.41;;;21.23;100.00
8334;BME280;4204;43.004;23.052;2023-06-24T04:55:21;93931.91;;;21.25;100.00
8334;BME280;4204;43.004;23.052;2023-06-24T04:57:49;93941.28;;;21.35;100.00
8334;BME280;4204;43.004;23.052;2023-06-24T05:00:17;93938.25;;;21.43;100.00
8334;BME280;4204;43.004;23.052;2023-06-24T05:02:44;93934.03;;;21.53;100.00
8334;BME280;4204;43.004;23.052;2023-06-24T05:05:12;93920.16;;;21.61;100.00
8334;BME280;4204;43.004;23.052;2023-06-24T05:07:41;93922.94;;;21.75;100.00
8334;BME280;4204;43.004;23.052;2023-06-24T05:10:09;93913.28;;;21.78;100.00
8334;BME280;4204;43.004;23.052;2023-06-24T05:12:37;93916.81;;;21.89;100.00
8334;BME280;4204;43.004;23.052;2023-06-24T05:15:06;93923.88;;;22.11;100.00
8334;BME280;4204;43.004;23.052;2023-06-24T05:17:33;93923.53;;;22.27;100.00
8334;BME280;4204;43.004;23.052;2023-06-24T05:20:01;93922.41;;;22.38;100.00
8334;BME280;4204;43.004;23.052;2023-06-24T05:22:30;93908.50;;;22.50;100.00
8334;BME280;4204;43.004;23.052;2023-06-24T05:24:59;93911.25;;;22.65;100.00
8334;BME280;4204;43.004;23.052;2023-06-24T05:27:27;93911.66;;;22.74;100.00
8334;BME280;4204;43.004;23.052;2023-06-24T05:29:54;93920.19;;;22.90;100.00
8334;BME280;4204;43.004;23.052;2023-06-24T05:32:22;93919.00;;;23.01;100.00
8334;BME280;4204;43.004;23.052;2023-06-24T05:34:50;93913.56;;;23.12;100.00
8334;BME280;4204;43.004;23.052;2023-06-24T05:37:18;93909.69;;;23.27;100.00
8334;BME280;4204;43.004;23.052;2023-06-24T05:39:46;93910.06;;;23.43;100.00
8334;BME280;4204;43.004;23.052;2023-06-24T05:42:15;93912.75;;;23.57;100.00
8334;BME280;4204;43.004;23.052;2023-06-24T05:44:43;93913.91;;;23.63;100.00
8334;BME280;4204;43.004;23.052;2023-06-24T05:47:11;93910.38;;;23.73;100.00
8334;BME280;4204;43.004;23.052;2023-06-24T05:49:39;93916.94;;;23.86;100.00
8334;BME280;4204;43.004;23.052;2023-06-24T05:52:06;93912.22;;;24.08;100.00
8334;BME280;4204;43.004;23.052;2023-06-24T05:54:34;93919.97;;;24.17;100.00
8334;BME280;4204;43.004;23.052;2023-06-24T05:57:02;93922.97;;;24.33;100.00
8334;BME280;4204;43.004;23.052;2023-06-24T05:59:33;93915.88;;;24.53;100.00
8334;BME280;4204;43.004;23.052;2023-06-24T06:02:01;93928.69;;;24.56;100.00
8334;BME280;4204;43.004;23.052;2023-06-24T06:04:29;93922.78;;;24.68;100.00
8334;BME280;4204;43.004;23.052;2023-06-24T06:06:56;93927.44;;;24.74;100.00
8334;BME280;4204;43.004;23.052;2023-06-24T06:09:24;93932.03;;;24.84;100.00
8334;BME280;4204;43.004;23.052;2023-06-24T06:11:52;93926.50;;;24.95;100.00
8334;BME280;4204;43.004;23.052;2023-06-24T06:14:20;93930.69;;;25.07;100.00
8334;BME280;4204;43.004;23.052;2023-06-24T06:16:49;93931.72;;;25.23;100.00
8334;BME280;4204;43.004;23.052;2023-06-24T06:19:16;93944.13;;;25.28;100.00
8334;BME280;4204;43.004;23.052;2023-06-24T06:21:44;93938.53;;;25.45;100.00
8334;BME280;4204;43.004;23.052;2023-06-24T06:24:12;93935.38;;;25.50;100.00
8334;BME280;4204;43.004;23.052;2023-06-24T06:26:41;93942.31;;;25.58;100.00
8334;BME280;4204;43.004;23.052;2023-06-24T06:29:10;93944.59;;;25.63;100.00
8334;BME280;4204;43.004;23.052;2023-06-24T06:31:38;93941.38;;;25.72;100.00
8334;BME280;4204;43.004;23.052;2023-06-24T06:34:07;93942.81;;;25.84;100.00
8334;BME280;4204;43.004;23.052;2023-06-24T06:36:35;93945.91;;;25.86;100.00
8334;BME280;4204;43.004;23.052;2023-06-24T06:39:02;93941.88;;;25.97;100.00
8334;BME280;4204;43.004;23.052;2023-06-24T06:41:30;93955.78;;;26.10;100.00
8334;BME280;4204;43.004;23.052;2023-06-24T06:43:59;93950.94;;;26.24;100.00
8334;BME280;4204;43.004;23.052;2023-06-24T06:46:27;93945.97;;;26.50;100.00
8334;BME280;4204;43.004;23.052;2023-06-24T06:48:55;93963.84;;;26.54;100.00
8334;BME280;4204;43.004;23.052;2023-06-24T06:51:24;93952.84;;;26.58;100.00
8334;BME280;4204;43.004;23.052;2023-06-24T06:53:52;93961.91;;;26.51;100.00
8334;BME280;4204;43.004;23.052;2023-06-24T06:56:22;93962.63;;;26.55;100.00
8334;BME280;4204;43.004;23.052;2023-06-24T06:58:50;93956.81;;;26.53;100.00
8334;BME280;4204;43.004;23.052;2023-06-24T07:01:18;93954.81;;;26.57;100.00
8334;BME280;4204;43.004;23.052;2023-06-24T07:03:46;93953.88;;;26.67;100.00
8334;BME280;4204;43.004;23.052;2023-06-24T07:06:14;93951.72;;;26.85;100.00
8334;BME280;4204;43.004;23.052;2023-06-24T07:08:43;93953.94;;;26.94;100.00
8334;BME280;4204;43.004;23.052;2023-06-24T07:11:10;93945.34;;;26.95;100.00
8334;BME280;4204;43.004;23.052;2023-06-24T07:13:38;93940.88;;;27.05;100.00
8334;BME280;4204;43.004;23.052;2023-06-24T07:16:06;93935.78;;;27.07;100.00
8334;BME280;4204;43.004;23.052;2023-06-24T07:18:33;93953.66;;;27.11;100.00
8334;BME280;4204;43.004;23.052;2023-06-24T07:21:02;93939.94;;;27.15;100.00
8334;BME280;4204;43.004;23.052;2023-06-24T07:23:29;93949.97;;;27.25;100.00
8334;BME280;4204;43.004;23.052;2023-06-24T07:25:58;93937.72;;;27.33;100.00
8334;BME280;4204;43.004;23.052;2023-06-24T07:28:26;93941.94;;;27.38;100.00
8334;BME280;4204;43.004;23.052;2023-06-24T07:30:54;93946.22;;;27.39;100.00
8334;BME280;4204;43.004;23.052;2023-06-24T07:33:21;93935.31;;;27.39;100.00
8334;BME280;4204;43.004;23.052;2023-06-24T07:35:49;93949.25;;;27.44;100.00
8334;BME280;4204;43.004;23.052;2023-06-24T07:38:17;93947.84;;;27.59;100.00
8334;BME280;4204;43.004;23.052;2023-06-24T07:40:45;93946.03;;;27.72;100.00
8334;BME280;4204;43.004;23.052;2023-06-24T07:43:14;93953.75;;;27.77;100.00
8334;BME280;4204;43.004;23.052;2023-06-24T07:45:43;93952.25;;;27.73;100.00
8334;BME280;4204;43.004;23.052;2023-06-24T07:48:11;93941.81;;;27.68;100.00
8334;BME280;4204;43.004;23.052;2023-06-24T07:50:39;93947.09;;;27.78;100.00
8334;BME280;4204;43.004;23.052;2023-06-24T07:53:07;93949.28;;;27.87;100.00
8334;BME280;4204;43.004;23.052;2023-06-24T07:55:34;93946.78;;;27.96;100.00
8334;BME280;4204;43.004;23.052;2023-06-24T07:58:02;93946.78;;;27.96;100.00
8334;BME280;4204;43.004;23.052;2023-06-24T08:00:33;93952.97;;;28.00;100.00
8334;BME280;4204;43.004;23.052;2023-06-24T08:03:01;93960.78;;;28.02;100.00
8334;BME280;4204;43.004;23.052;2023-06-24T08:05:29;93954.88;;;28.03;100.00
8334;BME280;4204;43.004;23.052;2023-06-24T08:07:56;93958.94;;;28.15;100.00
8334;BME280;4204;43.004;23.052;2023-06-24T08:10:24;93949.31;;;28.07;100.00
8334;BME280;4204;43.004;23.052;2023-06-24T08:12:52;93948.66;;;28.22;100.00
8334;BME280;4204;43.004;23.052;2023-06-24T08:15:20;93954.94;;;28.19;100.00
8334;BME280;4204;43.004;23.052;2023-06-24T08:17:52;93944.22;;;28.28;100.00
8334;BME280;4204;43.004;23.052;2023-06-24T08:20:20;93945.91;;;28.22;100.00
8334;BME280;4204;43.004;23.052;2023-06-24T08:22:48;93941.84;;;28.30;100.00
8334;BME280;4204;43.004;23.052;2023-06-24T08:25:16;93936.06;;;28.44;100.00
8334;BME280;4204;43.004;23.052;2023-06-24T08:27:44;93946.31;;;28.60;100.00
8334;BME280;4204;43.004;23.052;2023-06-24T08:30:13;93942.81;;;28.59;100.00
8334;BME280;4204;43.004;23.052;2023-06-24T08:32:42;93935.91;;;28.51;100.00
8334;BME280;4204;43.004;23.052;2023-06-24T08:35:11;93931.53;;;28.57;100.00
8334;BME280;4204;43.004;23.052;2023-06-24T08:37:40;93938.19;;;28.56;100.00
8334;BME280;4204;43.004;23.052;2023-06-24T08:40:08;93931.69;;;28.66;100.00
8334;BME280;4204;43.004;23.052;2023-06-24T08:42:36;93929.59;;;28.74;100.00
8334;BME280;4204;43.004;23.052;2023-06-24T08:45:05;93932.75;;;28.72;100.00
8334;BME280;4204;43.004;23.052;2023-06-24T08:47:35;93926.94;;;28.87;100.00
8334;BME280;4204;43.004;23.052;2023-06-24T08:50:04;93929.97;;;28.92;100.00
8334;BME280;4204;43.004;23.052;2023-06-24T08:52:36;93937.06;;;29.06;100.00
8334;BME280;4204;43.004;23.052;2023-06-24T08:55:09;93930.66;;;29.12;100.00
8334;BME280;4204;43.004;23.052;2023-06-24T08:57:37;93932.22;;;29.13;100.00
8334;BME280;4204;43.004;23.052;2023-06-24T09:00:06;93925.38;;;29.21;100.00
8334;BME280;4204;43.004;23.052;2023-06-24T09:02:36;93927.34;;;29.21;100.00
8334;BME280;4204;43.004;23.052;2023-06-24T09:05:05;93925.19;;;29.28;100.00
8334;BME280;4204;43.004;23.052;2023-06-24T09:07:36;93923.56;;;29.31;100.00
8334;BME280;4204;43.004;23.052;2023-06-24T09:10:05;93928.13;;;29.37;100.00
8334;BME280;4204;43.004;23.052;2023-06-24T09:12:35;93913.41;;;29.31;100.00
8334;BME280;4204;43.004;23.052;2023-06-24T09:15:03;93931.38;;;29.48;100.00
8334;BME280;4204;43.004;23.052;2023-06-24T09:17:32;93933.69;;;29.50;100.00
8334;BME280;4204;43.004;23.052;2023-06-24T09:20:04;93935.38;;;29.60;100.00
8334;BME280;4204;43.004;23.052;2023-06-24T09:22:32;93933.47;;;29.57;100.00
8334;BME280;4204;43.004;23.052;2023-06-24T09:25:02;93939.81;;;29.70;100.00
8334;BME280;4204;43.004;23.052;2023-06-24T09:27:31;93932.88;;;29.66;100.00
8334;BME280;4204;43.004;23.052;2023-06-24T09:29:59;93940.59;;;29.71;100.00
8334;BME280;4204;43.004;23.052;2023-06-24T09:32:31;93941.19;;;29.78;100.00
8334;BME280;4204;43.004;23.052;2023-06-24T09:35:02;93938.91;;;29.77;100.00
8334;BME280;4204;43.004;23.052;2023-06-24T09:37:32;93936.59;;;29.75;100.00
8334;BME280;4204;43.004;23.052;2023-06-24T09:40:02;93937.75;;;29.90;100.00
8334;BME280;4204;43.004;23.052;2023-06-24T09:42:34;93931.06;;;29.91;100.00
8334;BME280;4204;43.004;23.052;2023-06-24T09:45:04;93926.94;;;29.99;100.00
8334;BME280;4204;43.004;23.052;2023-06-24T09:47:33;93935.59;;;29.98;100.00
8334;BME280;4204;43.004;23.052;2023-06-24T09:50:01;93939.09;;;29.98;100.00
8334;BME280;4204;43.004;23.052;2023-06-24T09:52:31;93929.56;;;30.03;100.00
8334;BME280;4204;43.004;23.052;2023-06-24T09:55:05;93927.25;;;30.01;100.00
8334;BME280;4204;43.004;23.052;2023-06-24T09:57:35;93927.78;;;29.96;100.00
8334;BME280;4204;43.004;23.052;2023-06-24T10:00:04;93925.91;;;29.93;100.00
8334;BME280;4204;43.004;23.052;2023-06-24T10:02:33;93926.94;;;29.99;100.00
8334;BME280;4204;43.004;23.052;2023-06-24T10:05:01;93925.63;;;30.04;100.00
8334;BME280;4204;43.004;23.052;2023-06-24T10:07:32;93924.38;;;30.21;100.00
8334;BME280;4204;43.004;23.052;2023-06-24T10:10:01;93924.53;;;30.30;100.00
8334;BME280;4204;43.004;23.052;2023-06-24T10:12:32;93921.63;;;30.21;100.00
8334;BME280;4204;43.004;23.052;2023-06-24T10:15:01;93912.69;;;30.17;100.00
8334;BME280;4204;43.004;23.052;2023-06-24T10:17:31;93911.84;;;30.20;100.00
8334;BME280;4204;43.004;23.052;2023-06-24T10:20:03;93910.69;;;30.33;100.00
8334;BME280;4204;43.004;23.052;2023-06-24T10:22:32;93905.91;;;30.38;100.00
8334;BME280;4204;43.004;23.052;2023-06-24T10:25:00;93896.78;;;30.41;100.00
8334;BME280;4204;43.004;23.052;2023-06-24T10:27:28;93896.78;;;30.53;100.00
8334;BME280;4204;43.004;23.052;2023-06-24T10:30:03;93889.75;;;30.65;100.00
8334;BME280;4204;43.004;23.052;2023-06-24T10:32:39;93885.50;;;30.76;100.00
8334;BME280;4204;43.004;23.052;2023-06-24T10:35:22;93878.16;;;30.98;100.00
8334;BME280;4204;43.004;23.052;2023-06-24T10:37:55;93869.25;;;31.07;100.00
8334;BME280;4204;43.004;23.052;2023-06-24T10:40:36;93865.41;;;30.92;100.00
8334;BME280;4204;43.004;23.052;2023-06-24T10:43:26;93864.31;;;30.77;100.00
8334;BME280;4204;43.004;23.052;2023-06-24T10:45:56;93873.94;;;30.81;100.00
8334;BME280;4204;43.004;23.052;2023-06-24T10:48:24;93862.91;;;30.85;100.00
8334;BME280;4204;43.004;23.052;2023-06-24T10:50:52;93850.16;;;30.91;100.00
8334;BME280;4204;43.004;23.052;2023-06-24T10:53:21;93858.38;;;31.03;100.00
8334;BME280;4204;43.004;23.052;2023-06-24T10:55:49;93848.13;;;31.04;100.00
8334;BME280;4204;43.004;23.052;2023-06-24T10:58:17;93839.78;;;31.07;100.00
8334;BME280;4204;43.004;23.052;2023-06-24T11:00:45;93837.50;;;30.93;100.00
8334;BME280;4204;43.004;23.052;2023-06-24T11:03:15;93835.94;;;31.05;100.00
8334;BME280;4204;43.004;23.052;2023-06-24T11:05:45;93830.56;;;31.01;100.00
8334;BME280;4204;43.004;23.052;2023-06-24T11:08:13;93828.34;;;31.09;100.00
8334;BME280;4204;43.004;23.052;2023-06-24T11:10:45;93829.94;;;31.32;100.00
8334;BME280;4204;43.004;23.052;2023-06-24T11:13:13;93826.53;;;31.40;100.00
8334;BME280;4204;43.004;23.052;2023-06-24T11:15:41;93836.59;;;31.56;100.00
8334;BME280;4204;43.004;23.052;2023-06-24T11:18:09;93837.47;;;31.65;100.00
8334;BME280;4204;43.004;23.052;2023-06-24T11:20:39;93842.38;;;31.36;100.00
8334;BME280;4204;43.004;23.052;2023-06-24T11:23:08;93836.53;;;31.47;100.00
8334;BME280;4204;43.004;23.052;2023-06-24T11:25:41;93844.06;;;31.68;100.00
8334;BME280;4204;43.004;23.052;2023-06-24T11:28:14;93841.81;;;31.75;100.00
8334;BME280;4204;43.004;23.052;2023-06-24T11:30:42;93852.22;;;31.80;100.00
8334;BME280;4204;43.004;23.052;2023-06-24T11:33:09;93863.72;;;31.66;100.00
8334;BME280;4204;43.004;23.052;2023-06-24T11:35:38;93858.56;;;31.22;100.00
8334;BME280;4204;43.004;23.052;2023-06-24T11:38:08;93848.34;;;30.34;100.00
8334;BME280;4204;43.004;23.052;2023-06-24T11:40:36;93849.41;;;29.83;100.00
8334;BME280;4204;43.004;23.052;2023-06-24T11:43:04;93844.50;;;29.45;100.00
8334;BME280;4204;43.004;23.052;2023-06-24T11:45:33;93837.50;;;29.28;100.00
8334;BME280;4204;43.004;23.052;2023-06-24T11:48:04;93836.59;;;29.03;100.00
8334;BME280;4204;43.004;23.052;2023-06-24T11:50:35;93840.03;;;28.91;100.00
8334;BME280;4204;43.004;23.052;2023-06-24T11:53:04;93850.59;;;28.72;100.00
8334;BME280;4204;43.004;23.052;2023-06-24T11:55:32;93845.81;;;28.76;100.00
8334;BME280;4204;43.004;23.052;2023-06-24T11:58:01;93838.47;;;28.57;100.00
8334;BME280;4204;43.004;23.052;2023-06-24T12:00:32;93845.66;;;28.12;100.00
8334;BME280;4204;43.004;23.052;2023-06-24T12:03:01;93858.78;;;27.81;100.00
8334;BME280;4204;43.004;23.052;2023-06-24T12:05:31;93869.78;;;27.12;100.00
8334;BME280;4204;43.004;23.052;2023-06-24T12:08:00;93848.31;;;26.37;100.00
8334;BME280;4204;43.004;23.052;2023-06-24T12:10:30;93823.47;;;26.02;100.00
8334;BME280;4204;43.004;23.052;2023-06-24T12:13:00;93816.75;;;25.80;100.00
8334;BME280;4204;43.004;23.052;2023-06-24T12:15:30;93829.72;;;25.68;100.00
8334;BME280;4204;43.004;23.052;2023-06-24T12:17:58;93832.19;;;25.56;100.00
8334;BME280;4204;43.004;23.052;2023-06-24T12:20:26;93846.00;;;25.38;100.00
8334;BME280;4204;43.004;23.052;2023-06-24T12:22:54;93878.09;;;25.17;100.00
8334;BME280;4204;43.004;23.052;2023-06-24T12:25:22;93914.59;;;25.23;100.00
8334;BME280;4204;43.004;23.052;2023-06-24T12:27:52;93940.88;;;25.43;100.00
8334;BME280;4204;43.004;23.052;2023-06-24T12:30:19;93936.16;;;25.51;100.00
8334;BME280;4204;43.004;23.052;2023-06-24T12:32:49;93946.81;;;25.76;100.00
8334;BME280;4204;43.004;23.052;2023-06-24T12:35:18;93946.66;;;25.90;100.00
8334;BME280;4204;43.004;23.052;2023-06-24T12:37:50;93947.44;;;25.87;100.00
8334;BME280;4204;43.004;23.052;2023-06-24T12:40:18;93919.94;;;25.74;100.00
8334;BME280;4204;43.004;23.052;2023-06-24T12:42:46;93914.13;;;25.31;100.00
8334;BME280;4204;43.004;23.052;2023-06-24T12:45:16;93891.28;;;25.22;100.00
8334;BME280;4204;43.004;23.052;2023-06-24T12:47:44;93882.13;;;24.98;100.00
8334;BME280;4204;43.004;23.052;2023-06-24T12:50:12;93873.66;;;24.93;100.00
8334;BME280;4204;43.004;23.052;2023-06-24T12:52:40;93862.38;;;24.91;100.00
8334;BME280;4204;43.004;23.052;2023-06-24T12:55:08;93857.31;;;24.93;100.00
8334;BME280;4204;43.004;23.052;2023-06-24T12:57:37;93856.56;;;24.88;100.00
8334;BME280;4204;43.004;23.052;2023-06-24T13:00:06;93864.44;;;24.76;100.00
8334;BME280;4204;43.004;23.052;2023-06-24T13:02:35;93869.22;;;24.58;100.00
8334;BME280;4204;43.004;23.052;2023-06-24T13:05:04;93889.56;;;24.32;100.00
8334;BME280;4204;43.004;23.052;2023-06-24T13:07:32;93888.63;;;23.80;100.00
8334;BME280;4204;43.004;23.052;2023-06-24T13:10:00;93868.13;;;23.69;100.00
8334;BME280;4204;43.004;23.052;2023-06-24T13:12:28;93859.94;;;23.72;100.00